sensor_id;sensor_type;location;lat;lon;timestamp;pressure;altitude;pressure_sealevel;temperature;humidity
27984;BME280;15317;50.360;8.726;2024-02-23T00:03:05;97050.31;;;7.64;100.00
27984;BME280;15317;50.360;8.726;2024-02-23T00:08:10;97050.53;;;7.69;100.00
27984;BME280;15317;50.360;8.726;2024-02-23T00:13:13;97078.19;;;7.71;100.00
27984;BME280;15317;50.360;8.726;2024-02-23T00:18:18;97067.38;;;7.71;100.00
27984;BME280;15317;50.360;8.726;2024-02-23T00:23:22;97104.09;;;7.65;100.00
27984;BME280;15317;50.360;8.726;2024-02-23T00:28:25;97084.78;;;7.62;100.00
27984;BME280;15317;50.360;8.726;2024-02-23T00:33:29;97121.31;;;7.58;100.00
27984;BME280;15317;50.360;8.726;2024-02-23T00:38:33;97120.25;;;7.52;100.00
27984;BME280;15317;50.360;8.726;2024-02-23T00:43:39;97144.28;;;7.40;100.00
27984;BME280;15317;50.360;8.726;2024-02-23T00:48:44;97150.22;;;7.29;100.00
27984;BME280;15317;50.360;8.726;2024-02-23T00:53:47;97165.78;;;7.27;100.00
27984;BME280;15317;50.360;8.726;2024-02-23T00:58:50;97157.16;;;7.17;100.00
27984;BME280;15317;50.360;8.726;2024-02-23T01:03:55;97185.84;;;6.97;100.00
27984;BME280;15317;50.360;8.726;2024-02-23T01:08:58;97195.47;;;6.85;100.00
27984;BME280;15317;50.360;8.726;2024-02-23T01:14:01;97186.34;;;6.64;100.00
27984;BME280;15317;50.360;8.726;2024-02-23T01:19:06;97186.63;;;6.33;100.00
27984;BME280;15317;50.360;8.726;2024-02-23T01:24:09;97214.28;;;6.21;100.00
27984;BME280;15317;50.360;8.726;2024-02-23T01:29:12;97199.97;;;6.06;100.00
27984;BME280;15317;50.360;8.726;2024-02-23T01:34:17;97203.50;;;5.91;100.00
27984;BME280;15317;50.360;8.726;2024-02-23T01:39:20;97203.91;;;5.80;100.00
27984;BME280;15317;50.360;8.726;2024-02-23T01:44:23;97209.31;;;5.80;100.00
27984;BME280;15317;50.360;8.726;2024-02-23T01:49:28;97213.75;;;5.73;100.00
27984;BME280;15317;50.360;8.726;2024-02-23T01:54:34;97202.88;;;5.67;100.00
27984;BME280;15317;50.360;8.726;2024-02-23T01:59:38;97222.13;;;5.64;100.00
27984;BME280;15317;50.360;8.726;2024-02-23T02:04:43;97245.69;;;5.62;100.00
27984;BME280;15317;50.360;8.726;2024-02-23T02:09:46;97252.00;;;5.54;100.00
27984;BME280;15317;50.360;8.726;2024-02-23T02:14:52;97251.72;;;5.49;100.00
27984;BME280;15317;50.360;8.726;2024-02-23T02:19:58;97277.50;;;5.43;100.00
27984;BME280;15317;50.360;8.726;2024-02-23T02:25:02;97279.38;;;5.43;100.00
27984;BME280;15317;50.360;8.726;2024-02-23T02:30:09;97290.69;;;5.38;100.00
27984;BME280;15317;50.360;8.726;2024-02-23T02:35:14;97305.66;;;5.33;100.00
27984;BME280;15317;50.360;8.726;2024-02-23T02:40:17;97313.56;;;5.34;100.00
27984;BME280;15317;50.360;8.726;2024-02-23T02:45:21;97307.72;;;5.31;100.00
27984;BME280;15317;50.360;8.726;2024-02-23T02:50:25;97327.63;;;5.22;100.00
27984;BME280;15317;50.360;8.726;2024-02-23T02:55:29;97330.38;;;5.13;100.00
27984;BME280;15317;50.360;8.726;2024-02-23T03:00:32;97342.22;;;5.04;100.00
27984;BME280;15317;50.360;8.726;2024-02-23T03:05:36;97346.25;;;5.00;100.00
27984;BME280;15317;50.360;8.726;2024-02-23T03:10:40;97337.59;;;5.13;100.00
27984;BME280;15317;50.360;8.726;2024-02-23T03:15:43;97359.81;;;5.15;100.00
27984;BME280;15317;50.360;8.726;2024-02-23T03:20:48;97350.22;;;5.12;100.00
27984;BME280;15317;50.360;8.726;2024-02-23T03:25:51;97347.19;;;5.15;100.00
27984;BME280;15317;50.360;8.726;2024-02-23T03:30:54;97350.63;;;5.01;100.00
27984;BME280;15317;50.360;8.726;2024-02-23T03:35:59;97354.38;;;4.92;100.00
27984;BME280;15317;50.360;8.726;2024-02-23T03:41:03;97345.03;;;4.80;100.00
27984;BME280;15317;50.360;8.726;2024-02-23T03:46:06;97337.53;;;4.67;100.00
27984;BME280;15317;50.360;8.726;2024-02-23T03:51:11;97337.88;;;4.64;100.00
27984;BME280;15317;50.360;8.726;2024-02-23T03:56:15;97350.84;;;4.61;100.00
27984;BME280;15317;50.360;8.726;2024-02-23T04:01:19;97358.19;;;4.67;100.00
27984;BME280;15317;50.360;8.726;2024-02-23T04:06:23;97357.91;;;4.62;100.00
27984;BME280;15317;50.360;8.726;2024-02-23T04:11:26;97376.00;;;4.68;100.00
27984;BME280;15317;50.360;8.726;2024-02-23T04:16:30;97384.25;;;4.66;100.00
27984;BME280;15317;50.360;8.726;2024-02-23T04:21:34;97389.53;;;4.44;100.00
27984;BME280;15317;50.360;8.726;2024-02-23T04:26:37;97395.94;;;4.43;100.00
27984;BME280;15317;50.360;8.726;2024-02-23T04:31:41;97381.16;;;4.38;100.00
27984;BME280;15317;50.360;8.726;2024-02-23T04:36:45;97396.66;;;4.28;100.00
27984;BME280;15317;50.360;8.726;2024-02-23T04:41:48;97393.97;;;4.20;100.00
27984;BME280;15317;50.360;8.726;2024-02-23T04:46:51;97399.03;;;4.07;100.00
27984;BME280;15317;50.360;8.726;2024-02-23T04:51:56;97401.03;;;3.97;100.00
27984;BME280;15317;50.360;8.726;2024-02-23T04:56:59;97398.19;;;3.90;100.00
27984;BME280;15317;50.360;8.726;2024-02-23T05:02:02;97412.47;;;3.83;100.00
27984;BME280;15317;50.360;8.726;2024-02-23T05:07:07;97427.06;;;3.72;100.00
27984;BME280;15317;50.360;8.726;2024-02-23T05:12:10;97445.88;;;3.72;100.00
27984;BME280;15317;50.360;8.726;2024-02-23T05:17:13;97441.34;;;3.81;100.00
27984;BME280;15317;50.360;8.726;2024-02-23T05:22:18;97421.34;;;3.91;100.00
27984;BME280;15317;50.360;8.726;2024-02-23T05:27:22;97442.00;;;3.91;100.00
27984;BME280;15317;50.360;8.726;2024-02-23T05:32:25;97448.88;;;3.85;100.00
27984;BME280;15317;50.360;8.726;2024-02-23T05:37:30;97460.47;;;3.86;100.00
27984;BME280;15317;50.360;8.726;2024-02-23T05:42:33;97450.06;;;3.91;100.00
27984;BME280;15317;50.360;8.726;2024-02-23T05:47:41;97447.06;;;3.94;100.00
27984;BME280;15317;50.360;8.726;2024-02-23T05:52:50;97449.75;;;4.02;100.00
27984;BME280;15317;50.360;8.726;2024-02-23T05:57:55;97454.06;;;4.03;100.00
27984;BME280;15317;50.360;8.726;2024-02-23T06:02:58;97457.28;;;4.07;100.00
27984;BME280;15317;50.360;8.726;2024-02-23T06:08:03;97473.88;;;4.10;100.00
27984;BME280;15317;50.360;8.726;2024-02-23T06:13:06;97481.63;;;4.05;100.00
27984;BME280;15317;50.360;8.726;2024-02-23T06:18:09;97479.78;;;4.06;100.00
27984;BME280;15317;50.360;8.726;2024-02-23T06:23:13;97487.00;;;4.05;100.00
27984;BME280;15317;50.360;8.726;2024-02-23T06:28:17;97492.53;;;3.95;100.00
27984;BME280;15317;50.360;8.726;2024-02-23T06:33:20;97501.59;;;3.94;100.00
27984;BME280;15317;50.360;8.726;2024-02-23T06:38:24;97510.81;;;3.84;100.00
27984;BME280;15317;50.360;8.726;2024-02-23T06:43:28;97529.44;;;3.85;100.00
27984;BME280;15317;50.360;8.726;2024-02-23T06:48:31;97538.03;;;3.89;100.00
27984;BME280;15317;50.360;8.726;2024-02-23T06:53:36;97538.69;;;3.91;100.00
27984;BME280;15317;50.360;8.726;2024-02-23T06:58:40;97541.06;;;4.02;100.00
27984;BME280;15317;50.360;8.726;2024-02-23T07:03:43;97544.75;;;4.09;100.00
27984;BME280;15317;50.360;8.726;2024-02-23T07:08:48;97555.16;;;4.12;100.00
27984;BME280;15317;50.360;8.726;2024-02-23T07:13:52;97564.91;;;4.21;100.00
27984;BME280;15317;50.360;8.726;2024-02-23T07:18:57;97570.94;;;4.31;100.00
27984;BME280;15317;50.360;8.726;2024-02-23T07:24:01;97564.25;;;4.27;100.00
27984;BME280;15317;50.360;8.726;2024-02-23T07:29:05;97566.94;;;4.35;100.00
27984;BME280;15317;50.360;8.726;2024-02-23T07:34:08;97553.50;;;4.35;100.00
27984;BME280;15317;50.360;8.726;2024-02-23T07:39:13;97558.53;;;4.38;100.00
27984;BME280;15317;50.360;8.726;2024-02-23T07:44:16;97542.41;;;4.38;100.00
27984;BME280;15317;50.360;8.726;2024-02-23T07:49:20;97540.38;;;4.41;100.00
27984;BME280;15317;50.360;8.726;2024-02-23T07:54:25;97536.84;;;4.48;100.00
27984;BME280;15317;50.360;8.726;2024-02-23T07:59:28;97550.41;;;4.71;100.00
27984;BME280;15317;50.360;8.726;2024-02-23T08:04:32;97549.72;;;4.85;100.00
27984;BME280;15317;50.360;8.726;2024-02-23T08:09:37;97562.28;;;5.09;100.00
27984;BME280;15317;50.360;8.726;2024-02-23T08:14:40;97569.69;;;5.54;100.00
27984;BME280;15317;50.360;8.726;2024-02-23T08:19:44;97574.72;;;5.65;100.00
27984;BME280;15317;50.360;8.726;2024-02-23T08:24:48;97581.72;;;5.74;100.00
27984;BME280;15317;50.360;8.726;2024-02-23T08:29:52;97561.13;;;5.59;100.00
27984;BME280;15317;50.360;8.726;2024-02-23T08:34:55;97559.56;;;5.64;100.00
27984;BME280;15317;50.360;8.726;2024-02-23T08:40:03;97570.84;;;6.21;100.00
27984;BME280;15317;50.360;8.726;2024-02-23T08:45:09;97565.72;;;6.34;100.00
27984;BME280;15317;50.360;8.726;2024-02-23T08:50:14;97588.59;;;6.39;100.00
27984;BME280;15317;50.360;8.726;2024-02-23T08:55:19;97591.22;;;6.24;100.00
27984;BME280;15317;50.360;8.726;2024-02-23T09:00:23;97594.88;;;6.08;100.00
27984;BME280;15317;50.360;8.726;2024-02-23T09:05:26;97596.28;;;5.96;100.00
27984;BME280;15317;50.360;8.726;2024-02-23T09:10:31;97597.44;;;6.02;100.00
27984;BME280;15317;50.360;8.726;2024-02-23T09:15:34;97591.31;;;6.08;100.00
27984;BME280;15317;50.360;8.726;2024-02-23T09:20:37;97582.69;;;6.20;100.00
27984;BME280;15317;50.360;8.726;2024-02-23T09:25:42;97597.44;;;6.02;100.00
27984;BME280;15317;50.360;8.726;2024-02-23T09:30:45;97590.44;;;5.92;100.00
27984;BME280;15317;50.360;8.726;2024-02-23T09:35:48;97596.84;;;5.91;100.00
27984;BME280;15317;50.360;8.726;2024-02-23T09:40:53;97581.81;;;5.97;100.00
27984;BME280;15317;50.360;8.726;2024-02-23T09:45:56;97579.66;;;5.92;100.00
27984;BME280;15317;50.360;8.726;2024-02-23T09:51:01;97578.19;;;6.13;100.00
27984;BME280;15317;50.360;8.726;2024-02-23T09:56:06;97571.13;;;6.34;100.00
27984;BME280;15317;50.360;8.726;2024-02-23T10:01:11;97577.44;;;6.64;100.00
27984;BME280;15317;50.360;8.726;2024-02-23T10:06:14;97572.03;;;6.64;100.00
27984;BME280;15317;50.360;8.726;2024-02-23T10:11:20;97572.06;;;6.42;100.00
27984;BME280;15317;50.360;8.726;2024-02-23T10:16:23;97576.78;;;6.17;100.00
27984;BME280;15317;50.360;8.726;2024-02-23T10:21:27;97577.66;;;6.40;100.00
27984;BME280;15317;50.360;8.726;2024-02-23T10:26:31;97566.41;;;6.74;100.00
27984;BME280;15317;50.360;8.726;2024-02-23T10:31:36;97579.72;;;8.29;100.00
27984;BME280;15317;50.360;8.726;2024-02-23T10:36:41;97578.53;;;9.64;100.00
27984;BME280;15317;50.360;8.726;2024-02-23T10:41:53;97584.78;;;10.06;96.41
27984;BME280;15317;50.360;8.726;2024-02-23T10:46:58;97585.91;;;10.18;93.41
27984;BME280;15317;50.360;8.726;2024-02-23T10:52:03;97596.19;;;10.29;93.27
27984;BME280;15317;50.360;8.726;2024-02-23T10:57:09;97598.34;;;10.66;89.93
27984;BME280;15317;50.360;8.726;2024-02-23T11:02:13;97588.13;;;11.01;88.74
27984;BME280;15317;50.360;8.726;2024-02-23T11:07:20;97585.59;;;10.00;84.55
27984;BME280;15317;50.360;8.726;2024-02-23T11:12:26;97583.78;;;9.03;92.44
27984;BME280;15317;50.360;8.726;2024-02-23T11:17:31;97590.63;;;8.36;100.00
27984;BME280;15317;50.360;8.726;2024-02-23T11:22:35;97583.69;;;8.69;100.00
27984;BME280;15317;50.360;8.726;2024-02-23T11:27:42;97585.38;;;8.49;100.00
27984;BME280;15317;50.360;8.726;2024-02-23T11:32:47;97573.00;;;8.04;100.00
27984;BME280;15317;50.360;8.726;2024-02-23T11:37:53;97581.41;;;7.94;100.00
27984;BME280;15317;50.360;8.726;2024-02-23T11:43:02;97566.09;;;8.01;100.00
27984;BME280;15317;50.360;8.726;2024-02-23T11:48:07;97587.06;;;7.99;100.00
27984;BME280;15317;50.360;8.726;2024-02-23T11:53:10;97563.97;;;8.32;100.00
27984;BME280;15317;50.360;8.726;2024-02-23T11:58:15;97568.03;;;9.14;100.00
27984;BME280;15317;50.360;8.726;2024-02-23T12:03:20;97565.78;;;8.96;95.99
27984;BME280;15317;50.360;8.726;2024-02-23T12:08:23;97573.69;;;8.91;100.00
27984;BME280;15317;50.360;8.726;2024-02-23T12:13:29;97585.78;;;8.46;100.00
27984;BME280;15317;50.360;8.726;2024-02-23T12:18:33;97578.19;;;8.84;100.00
27984;BME280;15317;50.360;8.726;2024-02-23T12:23:40;97563.59;;;9.34;100.00
27984;BME280;15317;50.360;8.726;2024-02-23T12:28:45;97574.25;;;9.07;100.00
27984;BME280;15317;50.360;8.726;2024-02-23T12:33:48;97570.69;;;8.58;100.00
27984;BME280;15317;50.360;8.726;2024-02-23T12:38:51;97567.97;;;8.58;100.00
27984;BME280;15317;50.360;8.726;2024-02-23T12:43:56;97584.47;;;9.40;100.00
27984;BME280;15317;50.360;8.726;2024-02-23T12:48:59;97577.13;;;9.34;95.39
27984;BME280;15317;50.360;8.726;2024-02-23T12:54:02;97582.41;;;8.86;100.00
27984;BME280;15317;50.360;8.726;2024-02-23T12:59:08;97563.50;;;9.21;100.00
27984;BME280;15317;50.360;8.726;2024-02-23T13:04:12;97574.66;;;8.83;100.00
27984;BME280;15317;50.360;8.726;2024-02-23T13:09:16;97576.88;;;8.16;100.00
27984;BME280;15317;50.360;8.726;2024-02-23T13:14:20;97579.50;;;8.09;100.00
27984;BME280;15317;50.360;8.726;2024-02-23T13:19:23;97561.56;;;9.15;100.00
27984;BME280;15317;50.360;8.726;2024-02-23T13:24:27;97554.13;;;9.58;100.00
27984;BME280;15317;50.360;8.726;2024-02-23T13:29:31;97564.13;;;9.57;100.00
27984;BME280;15317;50.360;8.726;2024-02-23T13:34:35;97557.03;;;9.56;100.00
27984;BME280;15317;50.360;8.726;2024-02-23T13:39:38;97557.19;;;9.14;100.00
27984;BME280;15317;50.360;8.726;2024-02-23T13:44:42;97566.63;;;9.24;100.00
27984;BME280;15317;50.360;8.726;2024-02-23T13:49:45;97572.25;;;9.23;95.63
27984;BME280;15317;50.360;8.726;2024-02-23T13:54:48;97557.94;;;9.76;92.42
27984;BME280;15317;50.360;8.726;2024-02-23T13:59:53;97566.16;;;10.37;86.27
27984;BME280;15317;50.360;8.726;2024-02-23T14:05:00;97567.41;;;10.48;74.35
27984;BME280;15317;50.360;8.726;2024-02-23T14:10:06;97573.09;;;10.86;72.88
27984;BME280;15317;50.360;8.726;2024-02-23T14:15:11;97564.72;;;10.81;69.44
27984;BME280;15317;50.360;8.726;2024-02-23T14:20:14;97571.97;;;10.34;72.58
27984;BME280;15317;50.360;8.726;2024-02-23T14:25:17;97561.59;;;10.57;75.71
27984;BME280;15317;50.360;8.726;2024-02-23T14:30:22;97565.09;;;9.90;69.06
27984;BME280;15317;50.360;8.726;2024-02-23T14:35:25;97551.66;;;9.69;68.57
27984;BME280;15317;50.360;8.726;2024-02-23T14:40:28;97546.34;;;9.41;78.38
27984;BME280;15317;50.360;8.726;2024-02-23T14:45:33;97548.84;;;9.15;74.61
27984;BME280;15317;50.360;8.726;2024-02-23T14:50:36;97552.50;;;9.01;75.58
27984;BME280;15317;50.360;8.726;2024-02-23T14:55:39;97555.31;;;8.86;77.37
27984;BME280;15317;50.360;8.726;2024-02-23T15:00:44;97536.19;;;8.94;79.63
27984;BME280;15317;50.360;8.726;2024-02-23T15:05:47;97535.72;;;8.84;92.18
27984;BME280;15317;50.360;8.726;2024-02-23T15:10:50;97519.75;;;8.68;100.00
27984;BME280;15317;50.360;8.726;2024-02-23T15:15:55;97518.09;;;8.67;100.00
27984;BME280;15317;50.360;8.726;2024-02-23T15:20:59;97519.38;;;8.71;100.00
27984;BME280;15317;50.360;8.726;2024-02-23T15:26:03;97517.34;;;8.73;100.00
27984;BME280;15317;50.360;8.726;2024-02-23T15:31:14;97515.84;;;8.70;100.00
27984;BME280;15317;50.360;8.726;2024-02-23T15:36:17;97508.78;;;8.48;100.00
27984;BME280;15317;50.360;8.726;2024-02-23T15:41:21;97508.34;;;8.45;100.00
27984;BME280;15317;50.360;8.726;2024-02-23T15:46:25;97506.53;;;8.30;100.00
27984;BME280;15317;50.360;8.726;2024-02-23T15:51:29;97502.91;;;8.02;100.00
27984;BME280;15317;50.360;8.726;2024-02-23T15:56:52;97513.69;;;7.81;100.00
27984;BME280;15317;50.360;8.726;2024-02-23T16:01:57;97519.44;;;7.57;100.00
27984;BME280;15317;50.360;8.726;2024-02-23T16:07:04;97519.06;;;7.30;100.00
27984;BME280;15317;50.360;8.726;2024-02-23T16:12:08;97518.16;;;7.23;100.00
27984;BME280;15317;50.360;8.726;2024-02-23T16:17:13;97511.00;;;7.16;100.00
27984;BME280;15317;50.360;8.726;2024-02-23T16:22:17;97521.22;;;7.05;100.00
27984;BME280;15317;50.360;8.726;2024-02-23T16:27:20;97519.72;;;6.88;100.00
27984;BME280;15317;50.360;8.726;2024-02-23T16:32:25;97521.38;;;6.74;100.00
27984;BME280;15317;50.360;8.726;2024-02-23T16:37:29;97527.94;;;6.57;100.00
27984;BME280;15317;50.360;8.726;2024-02-23T16:42:32;97536.59;;;6.30;100.00
27984;BME280;15317;50.360;8.726;2024-02-23T16:47:37;97529.28;;;6.16;100.00
27984;BME280;15317;50.360;8.726;2024-02-23T16:52:40;97536.16;;;5.95;100.00
27984;BME280;15317;50.360;8.726;2024-02-23T16:57:43;97529.16;;;5.86;100.00
27984;BME280;15317;50.360;8.726;2024-02-23T17:02:48;97536.94;;;5.73;100.00
27984;BME280;15317;50.360;8.726;2024-02-23T17:07:51;97531.50;;;5.59;100.00
27984;BME280;15317;50.360;8.726;2024-02-23T17:12:54;97535.06;;;5.51;100.00
27984;BME280;15317;50.360;8.726;2024-02-23T17:17:59;97522.50;;;5.35;100.00
27984;BME280;15317;50.360;8.726;2024-02-23T17:23:03;97530.44;;;5.29;100.00
27984;BME280;15317;50.360;8.726;2024-02-23T17:28:06;97519.56;;;5.14;100.00
27984;BME280;15317;50.360;8.726;2024-02-23T17:33:11;97528.19;;;5.01;100.00
27984;BME280;15317;50.360;8.726;2024-02-23T17:38:15;97535.22;;;5.10;100.00
27984;BME280;15317;50.360;8.726;2024-02-23T17:43:18;97541.94;;;5.06;100.00
27984;BME280;15317;50.360;8.726;2024-02-23T17:48:23;97552.41;;;5.01;100.00
27984;BME280;15317;50.360;8.726;2024-02-23T17:53:26;97550.22;;;4.97;100.00
27984;BME280;15317;50.360;8.726;2024-02-23T17:58:29;97551.75;;;4.91;100.00
27984;BME280;15317;50.360;8.726;2024-02-23T18:03:33;97546.41;;;4.83;100.00
27984;BME280;15317;50.360;8.726;2024-02-23T18:08:37;97548.41;;;4.81;100.00
27984;BME280;15317;50.360;8.726;2024-02-23T18:13:41;97562.88;;;4.72;100.00
27984;BME280;15317;50.360;8.726;2024-02-23T18:18:46;97571.63;;;4.58;100.00
27984;BME280;15317;50.360;8.726;2024-02-23T18:23:50;97573.31;;;4.34;100.00
27984;BME280;15317;50.360;8.726;2024-02-23T18:28:53;97561.22;;;4.14;100.00
27984;BME280;15317;50.360;8.726;2024-02-23T18:33:58;97568.25;;;4.23;100.00
27984;BME280;15317;50.360;8.726;2024-02-23T18:39:03;97577.69;;;4.27;100.00
27984;BME280;15317;50.360;8.726;2024-02-23T18:44:06;97581.03;;;4.37;100.00
27984;BME280;15317;50.360;8.726;2024-02-23T18:49:10;97586.75;;;4.43;100.00
27984;BME280;15317;50.360;8.726;2024-02-23T18:54:13;97596.84;;;4.41;100.00
27984;BME280;15317;50.360;8.726;2024-02-23T18:59:17;97581.38;;;4.43;100.00
27984;BME280;15317;50.360;8.726;2024-02-23T19:04:21;97601.69;;;4.61;100.00
27984;BME280;15317;50.360;8.726;2024-02-23T19:09:24;97595.50;;;4.77;100.00
27984;BME280;15317;50.360;8.726;2024-02-23T19:14:28;97599.34;;;4.74;100.00
27984;BME280;15317;50.360;8.726;2024-02-23T19:19:33;97601.88;;;4.84;100.00
27984;BME280;15317;50.360;8.726;2024-02-23T19:24:37;97589.22;;;4.85;100.00
27984;BME280;15317;50.360;8.726;2024-02-23T19:29:40;97585.38;;;4.79;100.00
27984;BME280;15317;50.360;8.726;2024-02-23T19:34:44;97596.66;;;4.83;100.00
27984;BME280;15317;50.360;8.726;2024-02-23T19:39:47;97597.84;;;4.64;100.00
27984;BME280;15317;50.360;8.726;2024-02-23T19:44:50;97595.81;;;4.42;100.00
27984;BME280;15317;50.360;8.726;2024-02-23T19:49:55;97591.44;;;4.32;100.00
27984;BME280;15317;50.360;8.726;2024-02-23T19:54:58;97591.06;;;4.11;100.00
27984;BME280;15317;50.360;8.726;2024-02-23T20:00:02;97592.72;;;3.88;100.00
27984;BME280;15317;50.360;8.726;2024-02-23T20:05:08;97602.75;;;3.78;100.00
27984;BME280;15317;50.360;8.726;2024-02-23T20:10:11;97599.03;;;3.71;100.00
27984;BME280;15317;50.360;8.726;2024-02-23T20:15:18;97591.69;;;3.81;100.00
27984;BME280;15317;50.360;8.726;2024-02-23T20:20:23;97591.00;;;3.79;100.00
27984;BME280;15317;50.360;8.726;2024-02-23T20:25:26;97593.75;;;3.95;100.00
27984;BME280;15317;50.360;8.726;2024-02-23T20:30:29;97596.59;;;3.93;100.00
27984;BME280;15317;50.360;8.726;2024-02-23T20:35:34;97593.38;;;3.82;100.00
27984;BME280;15317;50.360;8.726;2024-02-23T20:40:37;97598.75;;;3.82;100.00
27984;BME280;15317;50.360;8.726;2024-02-23T20:45:40;97588.50;;;3.85;100.00
27984;BME280;15317;50.360;8.726;2024-02-23T20:50:45;97588.03;;;3.82;100.00
27984;BME280;15317;50.360;8.726;2024-02-23T20:55:49;97582.59;;;3.66;100.00
27984;BME280;15317;50.360;8.726;2024-02-23T21:00:52;97584.41;;;3.57;100.00
27984;BME280;15317;50.360;8.726;2024-02-23T21:05:57;97569.41;;;3.38;100.00
27984;BME280;15317;50.360;8.726;2024-02-23T21:11:00;97575.41;;;3.32;100.00
27984;BME280;15317;50.360;8.726;2024-02-23T21:16:05;97570.72;;;3.26;100.00
27984;BME280;15317;50.360;8.726;2024-02-23T21:21:10;97580.91;;;3.23;100.00
27984;BME280;15317;50.360;8.726;2024-02-23T21:26:13;97575.28;;;3.34;100.00
27984;BME280;15317;50.360;8.726;2024-02-23T21:31:16;97579.19;;;3.47;100.00
27984;BME280;15317;50.360;8.726;2024-02-23T21:36:21;97578.84;;;3.50;100.00
27984;BME280;15317;50.360;8.726;2024-02-23T21:41:24;97587.00;;;3.33;100.00
27984;BME280;15317;50.360;8.726;2024-02-23T21:46:28;97586.47;;;3.29;100.00
27984;BME280;15317;50.360;8.726;2024-02-23T21:51:32;97578.72;;;3.18;100.00
27984;BME280;15317;50.360;8.726;2024-02-23T21:56:35;97589.47;;;3.26;100.00
27984;BME280;15317;50.360;8.726;2024-02-23T22:01:39;97581.91;;;3.22;100.00
27984;BME280;15317;50.360;8.726;2024-02-23T22:06:43;97583.31;;;3.34;100.00
27984;BME280;15317;50.360;8.726;2024-02-23T22:11:47;97575.09;;;3.35;100.00
27984;BME280;15317;50.360;8.726;2024-02-23T22:16:50;97572.78;;;3.40;100.00
27984;BME280;15317;50.360;8.726;2024-02-23T22:21:54;97577.75;;;3.27;100.00
27984;BME280;15317;50.360;8.726;2024-02-23T22:26:57;97590.13;;;3.28;100.00
27984;BME280;15317;50.360;8.726;2024-02-23T22:32:00;97581.59;;;3.25;100.00
27984;BME280;15317;50.360;8.726;2024-02-23T22:37:05;97577.06;;;3.25;100.00
27984;BME280;15317;50.360;8.726;2024-02-23T22:42:08;97569.31;;;3.22;100.00
27984;BME280;15317;50.360;8.726;2024-02-23T22:47:12;97581.78;;;3.31;100.00
27984;BME280;15317;50.360;8.726;2024-02-23T22:52:17;97585.81;;;3.35;100.00
27984;BME280;15317;50.360;8.726;2024-02-23T22:57:20;97587.16;;;3.31;100.00
27984;BME280;15317;50.360;8.726;2024-02-23T23:02:23;97580.25;;;3.29;100.00
27984;BME280;15317;50.360;8.726;2024-02-23T23:07:27;97583.63;;;3.31;100.00
27984;BME280;15317;50.360;8.726;2024-02-23T23:12:32;97580.06;;;3.22;100.00
27984;BME280;15317;50.360;8.726;2024-02-23T23:17:35;97593.59;;;3.12;100.00
27984;BME280;15317;50.360;8.726;2024-02-23T23:22:39;97597.59;;;3.08;100.00
27984;BME280;15317;50.360;8.726;2024-02-23T23:27:42;97606.63;;;3.07;100.00
27984;BME280;15317;50.360;8.726;2024-02-23T23:32:46;97607.13;;;3.03;100.00
27984;BME280;15317;50.360;8.726;2024-02-23T23:37:50;97610.06;;;2.92;100.00
27984;BME280;15317;50.360;8.726;2024-02-23T23:42:54;97616.59;;;2.89;100.00
27984;BME280;15317;50.360;8.726;2024-02-23T23:47:57;97617.28;;;2.73;100.00
27984;BME280;15317;50.360;8.726;2024-02-23T23:53:01;97609.16;;;2.57;100.00
27984;BME280;15317;50.360;8.726;2024-02-23T23:58:05;97608.25;;;2.49;100.00
